sensor_id;sensor_type;location;lat;lon;timestamp;temperature;humidity
20319;DHT22;10317;47.254;11.314;2023-01-26T00:01:35;-2.40;99.90
20319;DHT22;10317;47.254;11.314;2023-01-26T00:04:01;-2.30;99.90
20319;DHT22;10317;47.254;11.314;2023-01-26T00:06:26;-2.40;99.90
20319;DHT22;10317;47.254;11.314;2023-01-26T00:08:54;-2.30;99.90
20319;DHT22;10317;47.254;11.314;2023-01-26T00:11:22;-2.40;99.90
20319;DHT22;10317;47.254;11.314;2023-01-26T00:13:49;-2.30;99.90
20319;DHT22;10317;47.254;11.314;2023-01-26T00:16:15;-2.30;99.90
20319;DHT22;10317;47.254;11.314;2023-01-26T00:18:42;-2.30;99.90
20319;DHT22;10317;47.254;11.314;2023-01-26T00:21:12;-2.40;99.90
20319;DHT22;10317;47.254;11.314;2023-01-26T00:23:38;-2.30;99.90
20319;DHT22;10317;47.254;11.314;2023-01-26T00:26:08;-2.30;99.90
20319;DHT22;10317;47.254;11.314;2023-01-26T00:28:34;-2.30;99.90
20319;DHT22;10317;47.254;11.314;2023-01-26T00:31:05;-2.30;99.90
20319;DHT22;10317;47.254;11.314;2023-01-26T00:33:31;-2.40;99.90
20319;DHT22;10317;47.254;11.314;2023-01-26T00:35:57;-2.40;99.90
20319;DHT22;10317;47.254;11.314;2023-01-26T00:38:23;-2.40;99.90
20319;DHT22;10317;47.254;11.314;2023-01-26T00:40:48;-2.50;99.90
20319;DHT22;10317;47.254;11.314;2023-01-26T00:43:14;-2.40;99.90
20319;DHT22;10317;47.254;11.314;2023-01-26T00:45:40;-2.40;99.90
20319;DHT22;10317;47.254;11.314;2023-01-26T00:48:06;-2.40;99.90
20319;DHT22;10317;47.254;11.314;2023-01-26T00:50:32;-2.50;99.90
20319;DHT22;10317;47.254;11.314;2023-01-26T00:52:58;-2.40;99.90
20319;DHT22;10317;47.254;11.314;2023-01-26T00:55:24;-2.40;99.90
20319;DHT22;10317;47.254;11.314;2023-01-26T00:57:57;-2.50;99.90
20319;DHT22;10317;47.254;11.314;2023-01-26T01:00:23;-2.50;99.90
20319;DHT22;10317;47.254;11.314;2023-01-26T01:02:49;-2.50;99.90
20319;DHT22;10317;47.254;11.314;2023-01-26T01:05:15;-2.60;99.90
20319;DHT22;10317;47.254;11.314;2023-01-26T01:07:40;-2.60;99.90
20319;DHT22;10317;47.254;11.314;2023-01-26T01:10:07;-2.60;99.90
20319;DHT22;10317;47.254;11.314;2023-01-26T01:12:33;-2.60;99.90
20319;DHT22;10317;47.254;11.314;2023-01-26T01:14:59;-2.50;99.90
20319;DHT22;10317;47.254;11.314;2023-01-26T01:17:25;-2.50;99.90
20319;DHT22;10317;47.254;11.314;2023-01-26T01:19:50;-2.50;99.90
20319;DHT22;10317;47.254;11.314;2023-01-26T01:22:16;-2.60;99.90
20319;DHT22;10317;47.254;11.314;2023-01-26T01:24:42;-2.60;99.90
20319;DHT22;10317;47.254;11.314;2023-01-26T01:27:08;-2.70;99.90
20319;DHT22;10317;47.254;11.314;2023-01-26T01:29:37;-2.70;99.90
20319;DHT22;10317;47.254;11.314;2023-01-26T01:32:03;-2.70;99.90
20319;DHT22;10317;47.254;11.314;2023-01-26T01:34:28;-2.80;99.90
20319;DHT22;10317;47.254;11.314;2023-01-26T01:36:54;-2.80;99.90
20319;DHT22;10317;47.254;11.314;2023-01-26T01:39:20;-2.90;99.90
20319;DHT22;10317;47.254;11.314;2023-01-26T01:41:45;-2.80;99.90
20319;DHT22;10317;47.254;11.314;2023-01-26T01:44:19;-2.80;99.90
20319;DHT22;10317;47.254;11.314;2023-01-26T01:46:52;-2.80;99.90
20319;DHT22;10317;47.254;11.314;2023-01-26T01:49:29;-2.70;99.90
20319;DHT22;10317;47.254;11.314;2023-01-26T01:51:58;-2.80;99.90
20319;DHT22;10317;47.254;11.314;2023-01-26T01:54:34;-2.80;99.90
20319;DHT22;10317;47.254;11.314;2023-01-26T01:57:06;-2.80;99.90
20319;DHT22;10317;47.254;11.314;2023-01-26T01:59:41;-3.00;99.90
20319;DHT22;10317;47.254;11.314;2023-01-26T02:02:08;-2.90;99.90
20319;DHT22;10317;47.254;11.314;2023-01-26T02:04:34;-2.90;99.90
20319;DHT22;10317;47.254;11.314;2023-01-26T02:07:00;-2.80;99.90
20319;DHT22;10317;47.254;11.314;2023-01-26T02:09:35;-2.90;99.90
20319;DHT22;10317;47.254;11.314;2023-01-26T02:12:24;-2.80;99.90
20319;DHT22;10317;47.254;11.314;2023-01-26T02:14:51;-2.80;99.90
20319;DHT22;10317;47.254;11.314;2023-01-26T02:17:18;-2.70;99.90
20319;DHT22;10317;47.254;11.314;2023-01-26T02:20:03;-2.70;99.90
20319;DHT22;10317;47.254;11.314;2023-01-26T02:22:41;-2.60;99.90
20319;DHT22;10317;47.254;11.314;2023-01-26T02:25:40;-2.70;99.90
20319;DHT22;10317;47.254;11.314;2023-01-26T02:28:08;-2.70;99.90
20319;DHT22;10317;47.254;11.314;2023-01-26T02:30:33;-2.80;99.90
20319;DHT22;10317;47.254;11.314;2023-01-26T02:32:59;-2.70;99.90
20319;DHT22;10317;47.254;11.314;2023-01-26T02:35:25;-2.70;99.90
20319;DHT22;10317;47.254;11.314;2023-01-26T02:37:51;-2.70;99.90
20319;DHT22;10317;47.254;11.314;2023-01-26T02:40:37;-2.70;99.90
20319;DHT22;10317;47.254;11.314;2023-01-26T02:43:05;-2.80;99.90
20319;DHT22;10317;47.254;11.314;2023-01-26T02:45:33;-2.90;99.90
20319;DHT22;10317;47.254;11.314;2023-01-26T02:47:59;-2.90;99.90
20319;DHT22;10317;47.254;11.314;2023-01-26T02:50:29;-2.90;99.90
20319;DHT22;10317;47.254;11.314;2023-01-26T02:52:55;-3.00;99.90
20319;DHT22;10317;47.254;11.314;2023-01-26T02:55:21;-3.10;99.90
20319;DHT22;10317;47.254;11.314;2023-01-26T02:57:49;-3.00;99.90
20319;DHT22;10317;47.254;11.314;2023-01-26T03:00:32;-3.00;99.90
20319;DHT22;10317;47.254;11.314;2023-01-26T03:03:18;-3.10;99.90
20319;DHT22;10317;47.254;11.314;2023-01-26T03:05:45;-3.00;99.90
20319;DHT22;10317;47.254;11.314;2023-01-26T03:08:11;-3.10;99.90
20319;DHT22;10317;47.254;11.314;2023-01-26T03:10:38;-3.10;99.90
20319;DHT22;10317;47.254;11.314;2023-01-26T03:13:04;-3.00;99.90
20319;DHT22;10317;47.254;11.314;2023-01-26T03:15:29;-3.10;99.90
20319;DHT22;10317;47.254;11.314;2023-01-26T03:18:15;-3.00;99.90
20319;DHT22;10317;47.254;11.314;2023-01-26T03:21:04;-3.00;99.90
20319;DHT22;10317;47.254;11.314;2023-01-26T03:23:49;-3.00;99.90
20319;DHT22;10317;47.254;11.314;2023-01-26T03:26:33;-3.00;99.90
20319;DHT22;10317;47.254;11.314;2023-01-26T03:29:18;-3.10;99.90
20319;DHT22;10317;47.254;11.314;2023-01-26T03:31:44;-3.00;99.90
20319;DHT22;10317;47.254;11.314;2023-01-26T03:34:10;-3.00;99.90
20319;DHT22;10317;47.254;11.314;2023-01-26T03:36:35;-3.00;99.90
20319;DHT22;10317;47.254;11.314;2023-01-26T03:39:03;-3.10;99.90
20319;DHT22;10317;47.254;11.314;2023-01-26T03:41:28;-3.10;99.90
20319;DHT22;10317;47.254;11.314;2023-01-26T03:44:12;-3.20;99.90
20319;DHT22;10317;47.254;11.314;2023-01-26T03:46:56;-3.10;99.90
20319;DHT22;10317;47.254;11.314;2023-01-26T03:49:41;-3.10;99.90
20319;DHT22;10317;47.254;11.314;2023-01-26T03:52:25;-3.10;99.90
20319;DHT22;10317;47.254;11.314;2023-01-26T03:55:09;-3.10;99.90
20319;DHT22;10317;47.254;11.314;2023-01-26T03:57:55;-3.10;99.90
20319;DHT22;10317;47.254;11.314;2023-01-26T04:00:21;-3.20;99.90
20319;DHT22;10317;47.254;11.314;2023-01-26T04:02:47;-3.20;99.90
20319;DHT22;10317;47.254;11.314;2023-01-26T04:05:31;-3.40;99.90
20319;DHT22;10317;47.254;11.314;2023-01-26T04:08:15;-3.40;99.90
20319;DHT22;10317;47.254;11.314;2023-01-26T04:10:51;-3.50;99.90
20319;DHT22;10317;47.254;11.314;2023-01-26T04:13:18;-3.30;99.90
20319;DHT22;10317;47.254;11.314;2023-01-26T04:16:03;-3.40;99.90
20319;DHT22;10317;47.254;11.314;2023-01-26T04:18:48;-3.30;99.90
20319;DHT22;10317;47.254;11.314;2023-01-26T04:21:32;-3.30;99.90
20319;DHT22;10317;47.254;11.314;2023-01-26T04:24:00;-3.30;99.90
20319;DHT22;10317;47.254;11.314;2023-01-26T04:26:28;-3.20;99.90
20319;DHT22;10317;47.254;11.314;2023-01-26T04:29:07;-3.20;99.90
20319;DHT22;10317;47.254;11.314;2023-01-26T04:31:33;-3.20;99.90
20319;DHT22;10317;47.254;11.314;2023-01-26T04:34:00;-3.20;99.90
20319;DHT22;10317;47.254;11.314;2023-01-26T04:36:26;-3.20;99.90
20319;DHT22;10317;47.254;11.314;2023-01-26T04:38:52;-3.20;99.90
20319;DHT22;10317;47.254;11.314;2023-01-26T04:41:18;-3.20;99.90
20319;DHT22;10317;47.254;11.314;2023-01-26T04:43:44;-3.10;99.90
20319;DHT22;10317;47.254;11.314;2023-01-26T04:46:10;-3.30;99.90
20319;DHT22;10317;47.254;11.314;2023-01-26T04:48:36;-3.20;99.90
20319;DHT22;10317;47.254;11.314;2023-01-26T04:51:08;-3.30;99.90
20319;DHT22;10317;47.254;11.314;2023-01-26T04:53:34;-3.30;99.90
20319;DHT22;10317;47.254;11.314;2023-01-26T04:56:00;-3.30;99.90
20319;DHT22;10317;47.254;11.314;2023-01-26T04:58:25;-3.30;99.90
20319;DHT22;10317;47.254;11.314;2023-01-26T05:00:55;-3.30;99.90
20319;DHT22;10317;47.254;11.314;2023-01-26T05:03:22;-3.30;99.90
20319;DHT22;10317;47.254;11.314;2023-01-26T05:05:50;-3.30;99.90
20319;DHT22;10317;47.254;11.314;2023-01-26T05:08:16;-3.30;99.90
20319;DHT22;10317;47.254;11.314;2023-01-26T05:10:43;-3.20;99.90
20319;DHT22;10317;47.254;11.314;2023-01-26T05:13:09;-3.30;99.90
20319;DHT22;10317;47.254;11.314;2023-01-26T05:15:35;-3.30;99.90
20319;DHT22;10317;47.254;11.314;2023-01-26T05:18:01;-3.30;99.90
20319;DHT22;10317;47.254;11.314;2023-01-26T05:20:27;-3.20;99.90
20319;DHT22;10317;47.254;11.314;2023-01-26T05:22:53;-3.20;99.90
20319;DHT22;10317;47.254;11.314;2023-01-26T05:25:19;-3.20;99.90
20319;DHT22;10317;47.254;11.314;2023-01-26T05:27:45;-3.30;99.90
20319;DHT22;10317;47.254;11.314;2023-01-26T05:30:11;-3.30;99.90
20319;DHT22;10317;47.254;11.314;2023-01-26T05:32:37;-3.30;99.90
20319;DHT22;10317;47.254;11.314;2023-01-26T05:35:04;-3.20;99.90
20319;DHT22;10317;47.254;11.314;2023-01-26T05:37:30;-3.20;99.90
20319;DHT22;10317;47.254;11.314;2023-01-26T05:39:56;-3.20;99.90
20319;DHT22;10317;47.254;11.314;2023-01-26T05:42:22;-3.10;99.90
20319;DHT22;10317;47.254;11.314;2023-01-26T05:44:48;-3.00;99.90
20319;DHT22;10317;47.254;11.314;2023-01-26T05:47:13;-3.10;99.90
20319;DHT22;10317;47.254;11.314;2023-01-26T05:49:39;-3.00;99.90
20319;DHT22;10317;47.254;11.314;2023-01-26T05:52:15;-3.00;99.90
20319;DHT22;10317;47.254;11.314;2023-01-26T05:54:41;-3.00;99.90
20319;DHT22;10317;47.254;11.314;2023-01-26T05:57:07;-2.90;99.90
20319;DHT22;10317;47.254;11.314;2023-01-26T05:59:33;-3.00;99.90
20319;DHT22;10317;47.254;11.314;2023-01-26T06:02:00;-3.00;99.90
20319;DHT22;10317;47.254;11.314;2023-01-26T06:04:26;-3.00;99.90
20319;DHT22;10317;47.254;11.314;2023-01-26T06:06:55;-3.00;99.90
20319;DHT22;10317;47.254;11.314;2023-01-26T06:09:21;-3.00;99.90
20319;DHT22;10317;47.254;11.314;2023-01-26T06:11:48;-3.00;99.90
20319;DHT22;10317;47.254;11.314;2023-01-26T06:14:14;-3.00;99.90
20319;DHT22;10317;47.254;11.314;2023-01-26T06:16:40;-3.00;99.90
20319;DHT22;10317;47.254;11.314;2023-01-26T06:19:07;-3.00;99.90
20319;DHT22;10317;47.254;11.314;2023-01-26T06:21:33;-3.10;99.90
20319;DHT22;10317;47.254;11.314;2023-01-26T06:23:58;-3.00;99.90
20319;DHT22;10317;47.254;11.314;2023-01-26T06:26:24;-3.00;99.90
20319;DHT22;10317;47.254;11.314;2023-01-26T06:28:51;-3.10;99.90
20319;DHT22;10317;47.254;11.314;2023-01-26T06:31:18;-3.00;99.90
20319;DHT22;10317;47.254;11.314;2023-01-26T06:33:43;-3.00;99.90
20319;DHT22;10317;47.254;11.314;2023-01-26T06:36:11;-3.10;99.90
20319;DHT22;10317;47.254;11.314;2023-01-26T06:38:38;-3.10;99.90
20319;DHT22;10317;47.254;11.314;2023-01-26T06:41:09;-3.10;99.90
20319;DHT22;10317;47.254;11.314;2023-01-26T06:43:35;-3.10;99.90
20319;DHT22;10317;47.254;11.314;2023-01-26T06:46:02;-3.00;99.90
20319;DHT22;10317;47.254;11.314;2023-01-26T06:48:31;-3.10;99.90
20319;DHT22;10317;47.254;11.314;2023-01-26T06:53:53;-3.00;99.90
20319;DHT22;10317;47.254;11.314;2023-01-26T06:56:19;-3.00;99.90
20319;DHT22;10317;47.254;11.314;2023-01-26T06:58:45;-3.00;99.90
20319;DHT22;10317;47.254;11.314;2023-01-26T07:01:23;-3.00;99.90
20319;DHT22;10317;47.254;11.314;2023-01-26T07:03:50;-3.00;99.90
20319;DHT22;10317;47.254;11.314;2023-01-26T07:06:16;-2.90;99.90
20319;DHT22;10317;47.254;11.314;2023-01-26T07:08:42;-3.00;99.90
20319;DHT22;10317;47.254;11.314;2023-01-26T07:11:09;-3.00;99.90
20319;DHT22;10317;47.254;11.314;2023-01-26T07:13:35;-3.00;99.90
20319;DHT22;10317;47.254;11.314;2023-01-26T07:16:07;-2.90;99.90
20319;DHT22;10317;47.254;11.314;2023-01-26T07:18:33;-2.90;99.90
20319;DHT22;10317;47.254;11.314;2023-01-26T07:21:10;-2.80;99.90
20319;DHT22;10317;47.254;11.314;2023-01-26T07:23:37;-2.90;99.90
20319;DHT22;10317;47.254;11.314;2023-01-26T07:26:06;-2.90;99.90
20319;DHT22;10317;47.254;11.314;2023-01-26T07:28:32;-2.90;99.90
20319;DHT22;10317;47.254;11.314;2023-01-26T07:31:03;-2.90;99.90
20319;DHT22;10317;47.254;11.314;2023-01-26T07:33:30;-2.80;99.90
20319;DHT22;10317;47.254;11.314;2023-01-26T07:35:56;-2.80;99.90
20319;DHT22;10317;47.254;11.314;2023-01-26T07:38:23;-2.80;99.90
20319;DHT22;10317;47.254;11.314;2023-01-26T07:40:49;-2.80;99.90
20319;DHT22;10317;47.254;11.314;2023-01-26T07:43:15;-2.80;99.90
20319;DHT22;10317;47.254;11.314;2023-01-26T07:45:49;-2.80;99.90
20319;DHT22;10317;47.254;11.314;2023-01-26T07:48:22;-2.80;99.90
20319;DHT22;10317;47.254;11.314;2023-01-26T07:50:48;-2.80;99.90
20319;DHT22;10317;47.254;11.314;2023-01-26T07:53:15;-2.70;99.90
20319;DHT22;10317;47.254;11.314;2023-01-26T07:55:44;-2.80;99.90
20319;DHT22;10317;47.254;11.314;2023-01-26T07:58:10;-2.80;99.90
20319;DHT22;10317;47.254;11.314;2023-01-26T08:00:36;-2.60;99.90
20319;DHT22;10317;47.254;11.314;2023-01-26T08:03:02;-2.70;99.90
20319;DHT22;10317;47.254;11.314;2023-01-26T08:05:28;-2.70;99.90
20319;DHT22;10317;47.254;11.314;2023-01-26T08:08:00;-2.60;99.90
20319;DHT22;10317;47.254;11.314;2023-01-26T08:10:26;-2.60;99.90
20319;DHT22;10317;47.254;11.314;2023-01-26T08:12:57;-2.60;99.90
20319;DHT22;10317;47.254;11.314;2023-01-26T08:15:23;-2.60;99.90
20319;DHT22;10317;47.254;11.314;2023-01-26T08:17:49;-2.50;99.90
20319;DHT22;10317;47.254;11.314;2023-01-26T08:20:14;-2.50;99.90
20319;DHT22;10317;47.254;11.314;2023-01-26T08:22:40;-2.40;99.90
20319;DHT22;10317;47.254;11.314;2023-01-26T08:25:07;-2.20;99.90
20319;DHT22;10317;47.254;11.314;2023-01-26T08:27:32;-2.20;99.90
20319;DHT22;10317;47.254;11.314;2023-01-26T08:30:03;-2.20;99.90
20319;DHT22;10317;47.254;11.314;2023-01-26T08:32:29;-2.20;99.90
20319;DHT22;10317;47.254;11.314;2023-01-26T08:34:58;-2.20;99.90
20319;DHT22;10317;47.254;11.314;2023-01-26T08:37:24;-2.10;99.90
20319;DHT22;10317;47.254;11.314;2023-01-26T08:39:50;-2.10;99.90
20319;DHT22;10317;47.254;11.314;2023-01-26T08:42:15;-2.10;99.90
20319;DHT22;10317;47.254;11.314;2023-01-26T08:44:41;-2.00;99.90
20319;DHT22;10317;47.254;11.314;2023-01-26T08:47:07;-1.90;99.90
20319;DHT22;10317;47.254;11.314;2023-01-26T08:49:32;-1.70;99.90
20319;DHT22;10317;47.254;11.314;2023-01-26T08:51:58;-1.60;99.90
20319;DHT22;10317;47.254;11.314;2023-01-26T08:54:24;-1.60;99.90
20319;DHT22;10317;47.254;11.314;2023-01-26T08:56:49;-1.60;99.90
20319;DHT22;10317;47.254;11.314;2023-01-26T08:59:15;-1.50;99.90
20319;DHT22;10317;47.254;11.314;2023-01-26T09:01:41;-1.60;99.90
20319;DHT22;10317;47.254;11.314;2023-01-26T09:04:06;-1.50;99.90
20319;DHT22;10317;47.254;11.314;2023-01-26T09:06:32;-1.40;99.90
20319;DHT22;10317;47.254;11.314;2023-01-26T09:08:58;-1.30;99.90
20319;DHT22;10317;47.254;11.314;2023-01-26T09:11:23;-1.20;99.90
20319;DHT22;10317;47.254;11.314;2023-01-26T09:13:50;-1.20;99.90
20319;DHT22;10317;47.254;11.314;2023-01-26T09:16:21;-1.20;99.90
20319;DHT22;10317;47.254;11.314;2023-01-26T09:18:51;-1.10;99.90
20319;DHT22;10317;47.254;11.314;2023-01-26T09:21:18;-1.00;99.90
20319;DHT22;10317;47.254;11.314;2023-01-26T09:23:44;-0.90;99.90
20319;DHT22;10317;47.254;11.314;2023-01-26T09:26:09;-0.90;99.90
20319;DHT22;10317;47.254;11.314;2023-01-26T09:28:35;-0.90;99.90
20319;DHT22;10317;47.254;11.314;2023-01-26T09:31:06;-0.90;99.90
20319;DHT22;10317;47.254;11.314;2023-01-26T09:33:32;-0.90;99.90
20319;DHT22;10317;47.254;11.314;2023-01-26T09:36:03;-1.00;99.90
20319;DHT22;10317;47.254;11.314;2023-01-26T09:38:29;-1.00;99.90
20319;DHT22;10317;47.254;11.314;2023-01-26T09:43:50;-1.00;99.90
20319;DHT22;10317;47.254;11.314;2023-01-26T09:46:21;-0.90;99.90
20319;DHT22;10317;47.254;11.314;2023-01-26T09:48:59;-0.90;99.90
20319;DHT22;10317;47.254;11.314;2023-01-26T09:52:14;-0.80;99.90
20319;DHT22;10317;47.254;11.314;2023-01-26T09:54:31;-0.70;99.90
20319;DHT22;10317;47.254;11.314;2023-01-26T09:57:09;-0.70;99.90
20319;DHT22;10317;47.254;11.314;2023-01-26T09:59:47;-0.80;99.90
20319;DHT22;10317;47.254;11.314;2023-01-26T10:07:53;-0.70;99.90
20319;DHT22;10317;47.254;11.314;2023-01-26T10:10:40;-0.80;99.90
20319;DHT22;10317;47.254;11.314;2023-01-26T10:13:11;-0.60;99.90
20319;DHT22;10317;47.254;11.314;2023-01-26T10:15:39;-0.60;99.90
20319;DHT22;10317;47.254;11.314;2023-01-26T10:18:14;-0.60;99.90
20319;DHT22;10317;47.254;11.314;2023-01-26T10:20:45;-0.60;99.90
20319;DHT22;10317;47.254;11.314;2023-01-26T10:23:22;-0.60;99.90
20319;DHT22;10317;47.254;11.314;2023-01-26T10:25:50;-0.50;99.90
20319;DHT22;10317;47.254;11.314;2023-01-26T10:28:28;-0.50;99.90
20319;DHT22;10317;47.254;11.314;2023-01-26T10:30:55;-0.60;99.90
20319;DHT22;10317;47.254;11.314;2023-01-26T10:33:27;-0.80;99.90
20319;DHT22;10317;47.254;11.314;2023-01-26T10:57:29;-1.00;99.90
20319;DHT22;10317;47.254;11.314;2023-01-26T10:59:59;-1.00;99.90
20319;DHT22;10317;47.254;11.314;2023-01-26T11:02:34;-0.90;99.90
20319;DHT22;10317;47.254;11.314;2023-01-26T11:07:41;-1.10;99.90
20319;DHT22;10317;47.254;11.314;2023-01-26T11:10:18;-0.90;99.90
20319;DHT22;10317;47.254;11.314;2023-01-26T11:12:43;-0.90;99.90
20319;DHT22;10317;47.254;11.314;2023-01-26T11:15:29;-0.80;99.90
20319;DHT22;10317;47.254;11.314;2023-01-26T11:18:10;-0.70;99.90
20319;DHT22;10317;47.254;11.314;2023-01-26T11:20:58;-0.60;99.90
20319;DHT22;10317;47.254;11.314;2023-01-26T11:34:34;-0.50;99.90
20319;DHT22;10317;47.254;11.314;2023-01-26T11:40:25;-0.70;99.90
20319;DHT22;10317;47.254;11.314;2023-01-26T11:43:31;-0.50;99.90
20319;DHT22;10317;47.254;11.314;2023-01-26T11:48:47;-0.40;99.90
20319;DHT22;10317;47.254;11.314;2023-01-26T11:54:27;-1.00;99.90
20319;DHT22;10317;47.254;11.314;2023-01-26T11:59:42;-0.90;99.90
20319;DHT22;10317;47.254;11.314;2023-01-26T12:02:18;-0.60;99.90
20319;DHT22;10317;47.254;11.314;2023-01-26T12:04:46;-0.50;99.90
20319;DHT22;10317;47.254;11.314;2023-01-26T12:07:18;-0.60;99.90
20319;DHT22;10317;47.254;11.314;2023-01-26T12:09:46;-0.70;99.90
20319;DHT22;10317;47.254;11.314;2023-01-26T12:15:02;-1.20;99.90
20319;DHT22;10317;47.254;11.314;2023-01-26T12:17:41;-1.40;99.90
20319;DHT22;10317;47.254;11.314;2023-01-26T12:20:41;-1.20;99.90
20319;DHT22;10317;47.254;11.314;2023-01-26T12:25:52;-0.70;99.90
20319;DHT22;10317;47.254;11.314;2023-01-26T12:28:36;-0.60;99.90
20319;DHT22;10317;47.254;11.314;2023-01-26T12:33:42;-0.60;99.90
20319;DHT22;10317;47.254;11.314;2023-01-26T12:47:09;-0.70;99.90
20319;DHT22;10317;47.254;11.314;2023-01-26T12:49:47;-1.00;99.90
20319;DHT22;10317;47.254;11.314;2023-01-26T12:57:43;-1.10;99.90
20319;DHT22;10317;47.254;11.314;2023-01-26T13:00:23;-0.80;99.90
20319;DHT22;10317;47.254;11.314;2023-01-26T13:05:54;-0.70;99.90
20319;DHT22;10317;47.254;11.314;2023-01-26T13:10:59;-1.00;99.90
20319;DHT22;10317;47.254;11.314;2023-01-26T13:16:30;-1.30;99.90
20319;DHT22;10317;47.254;11.314;2023-01-26T13:18:58;-1.20;99.90
20319;DHT22;10317;47.254;11.314;2023-01-26T13:23:55;-1.10;99.90
20319;DHT22;10317;47.254;11.314;2023-01-26T13:29:32;-1.20;99.90
20319;DHT22;10317;47.254;11.314;2023-01-26T13:37:37;-1.10;99.90
20319;DHT22;10317;47.254;11.314;2023-01-26T13:45:45;-0.90;99.90
20319;DHT22;10317;47.254;11.314;2023-01-26T13:48:19;-0.80;99.90
20319;DHT22;10317;47.254;11.314;2023-01-26T13:50:50;-0.80;99.90
20319;DHT22;10317;47.254;11.314;2023-01-26T13:53:38;-1.00;99.90
20319;DHT22;10317;47.254;11.314;2023-01-26T13:56:23;-1.00;99.90
20319;DHT22;10317;47.254;11.314;2023-01-26T13:58:49;-0.90;99.90
20319;DHT22;10317;47.254;11.314;2023-01-26T14:01:16;-1.10;99.90
20319;DHT22;10317;47.254;11.314;2023-01-26T14:03:43;-1.00;99.90
20319;DHT22;10317;47.254;11.314;2023-01-26T14:06:18;-1.10;99.90
20319;DHT22;10317;47.254;11.314;2023-01-26T14:08:56;-1.20;99.90
20319;DHT22;10317;47.254;11.314;2023-01-26T14:11:25;-1.10;99.90
20319;DHT22;10317;47.254;11.314;2023-01-26T14:13:53;-1.10;99.90
20319;DHT22;10317;47.254;11.314;2023-01-26T14:16:28;-1.10;99.90
20319;DHT22;10317;47.254;11.314;2023-01-26T14:19:15;-1.20;99.90
20319;DHT22;10317;47.254;11.314;2023-01-26T14:21:59;-1.10;99.90
20319;DHT22;10317;47.254;11.314;2023-01-26T14:26:51;-1.20;99.90
20319;DHT22;10317;47.254;11.314;2023-01-26T14:29:25;-1.10;99.90
20319;DHT22;10317;47.254;11.314;2023-01-26T14:31:53;-1.10;99.90
20319;DHT22;10317;47.254;11.314;2023-01-26T14:34:23;-1.10;99.90
20319;DHT22;10317;47.254;11.314;2023-01-26T14:37:05;-1.30;99.90
20319;DHT22;10317;47.254;11.314;2023-01-26T14:39:31;-1.30;99.90
20319;DHT22;10317;47.254;11.314;2023-01-26T14:41:58;-1.10;99.90
20319;DHT22;10317;47.254;11.314;2023-01-26T14:44:24;-1.20;99.90
20319;DHT22;10317;47.254;11.314;2023-01-26T14:52:30;-1.30;99.90
20319;DHT22;10317;47.254;11.314;2023-01-26T14:55:14;-1.30;99.90
20319;DHT22;10317;47.254;11.314;2023-01-26T14:57:41;-1.30;99.90
20319;DHT22;10317;47.254;11.314;2023-01-26T15:00:28;-1.30;99.90
20319;DHT22;10317;47.254;11.314;2023-01-26T15:02:57;-1.30;99.90
20319;DHT22;10317;47.254;11.314;2023-01-26T15:05:36;-1.30;99.90
20319;DHT22;10317;47.254;11.314;2023-01-26T15:08:04;-1.30;99.90
20319;DHT22;10317;47.254;11.314;2023-01-26T15:10:41;-1.30;99.90
20319;DHT22;10317;47.254;11.314;2023-01-26T15:13:19;-1.30;99.90
20319;DHT22;10317;47.254;11.314;2023-01-26T15:16:21;-1.30;99.90
20319;DHT22;10317;47.254;11.314;2023-01-26T15:18:39;-1.40;99.90
20319;DHT22;10317;47.254;11.314;2023-01-26T15:23:33;-1.30;99.90
20319;DHT22;10317;47.254;11.314;2023-01-26T15:26:29;-1.30;99.90
20319;DHT22;10317;47.254;11.314;2023-01-26T15:28:57;-1.30;99.90
20319;DHT22;10317;47.254;11.314;2023-01-26T15:31:33;-1.20;99.90
20319;DHT22;10317;47.254;11.314;2023-01-26T15:34:00;-1.20;99.90
20319;DHT22;10317;47.254;11.314;2023-01-26T15:39:23;-1.20;99.90
20319;DHT22;10317;47.254;11.314;2023-01-26T15:42:13;-1.20;99.90
20319;DHT22;10317;47.254;11.314;2023-01-26T15:44:40;-1.20;99.90
20319;DHT22;10317;47.254;11.314;2023-01-26T15:47:10;-1.20;99.90
20319;DHT22;10317;47.254;11.314;2023-01-26T15:49:36;-1.20;99.90
20319;DHT22;10317;47.254;11.314;2023-01-26T15:52:02;-1.20;99.90
20319;DHT22;10317;47.254;11.314;2023-01-26T15:54:29;-1.20;99.90
20319;DHT22;10317;47.254;11.314;2023-01-26T15:56:54;-1.20;99.90
20319;DHT22;10317;47.254;11.314;2023-01-26T15:59:20;-1.20;99.90
20319;DHT22;10317;47.254;11.314;2023-01-26T16:01:46;-1.20;99.90
20319;DHT22;10317;47.254;11.314;2023-01-26T16:04:12;-1.30;99.90
20319;DHT22;10317;47.254;11.314;2023-01-26T16:06:38;-1.30;99.90
20319;DHT22;10317;47.254;11.314;2023-01-26T16:09:04;-1.30;99.90
20319;DHT22;10317;47.254;11.314;2023-01-26T16:11:35;-1.30;99.90
20319;DHT22;10317;47.254;11.314;2023-01-26T16:14:02;-1.30;99.90
20319;DHT22;10317;47.254;11.314;2023-01-26T16:16:28;-1.30;99.90
20319;DHT22;10317;47.254;11.314;2023-01-26T16:18:54;-1.30;99.90
20319;DHT22;10317;47.254;11.314;2023-01-26T16:21:23;-1.30;99.90
20319;DHT22;10317;47.254;11.314;2023-01-26T16:23:49;-1.40;99.90
20319;DHT22;10317;47.254;11.314;2023-01-26T16:26:17;-1.40;99.90
20319;DHT22;10317;47.254;11.314;2023-01-26T16:28:44;-1.40;99.90
20319;DHT22;10317;47.254;11.314;2023-01-26T16:31:22;-1.40;99.90
20319;DHT22;10317;47.254;11.314;2023-01-26T16:33:49;-1.50;99.90
20319;DHT22;10317;47.254;11.314;2023-01-26T16:36:16;-1.40;99.90
20319;DHT22;10317;47.254;11.314;2023-01-26T16:38:42;-1.50;99.90
20319;DHT22;10317;47.254;11.314;2023-01-26T16:41:27;-1.40;99.90
20319;DHT22;10317;47.254;11.314;2023-01-26T16:43:55;-1.50;99.90
20319;DHT22;10317;47.254;11.314;2023-01-26T17:40:08;-1.30;99.90
20319;DHT22;10317;47.254;11.314;2023-01-26T17:42:36;-1.40;99.90
20319;DHT22;10317;47.254;11.314;2023-01-26T17:45:03;-1.40;99.90
20319;DHT22;10317;47.254;11.314;2023-01-26T17:47:32;-1.40;99.90
20319;DHT22;10317;47.254;11.314;2023-01-26T17:49:59;-1.40;99.90
20319;DHT22;10317;47.254;11.314;2023-01-26T17:52:25;-1.40;99.90
20319;DHT22;10317;47.254;11.314;2023-01-26T17:54:51;-1.40;99.90
20319;DHT22;10317;47.254;11.314;2023-01-26T17:57:17;-1.40;99.90
20319;DHT22;10317;47.254;11.314;2023-01-26T18:00:00;-1.40;99.90
20319;DHT22;10317;47.254;11.314;2023-01-26T18:02:26;-1.40;99.90
20319;DHT22;10317;47.254;11.314;2023-01-26T18:04:54;-1.40;99.90
20319;DHT22;10317;47.254;11.314;2023-01-26T18:07:20;-1.40;99.90
20319;DHT22;10317;47.254;11.314;2023-01-26T18:13:35;-1.40;99.90
20319;DHT22;10317;47.254;11.314;2023-01-26T18:16:06;-1.40;99.90
20319;DHT22;10317;47.254;11.314;2023-01-26T18:18:35;-1.50;99.90
20319;DHT22;10317;47.254;11.314;2023-01-26T18:23:46;-1.50;99.90
20319;DHT22;10317;47.254;11.314;2023-01-26T18:26:13;-1.50;99.90
20319;DHT22;10317;47.254;11.314;2023-01-26T18:28:44;-1.50;99.90
20319;DHT22;10317;47.254;11.314;2023-01-26T18:34:05;-1.50;99.90
20319;DHT22;10317;47.254;11.314;2023-01-26T18:36:32;-1.50;99.90
20319;DHT22;10317;47.254;11.314;2023-01-26T18:39:00;-1.50;99.90